Time;durP1;ratioP1;P1;durP2;ratioP2;P2;SDS_P1;SDS_P2;PMS_P1;PMS_P2;Temp;Humidity;BMP_temperature;BMP_pressure;BME280_temperature;BME280_humidity;BME280_pressure;Samples;Min_cycle;Max_cycle;Signal;HPM_P1;HPM_P2
2022/03/25 00:05:08;;;;;;;21.42;19.13;;;;;;;;;;12643455;28;20035;-82
2022/03/25 00:11:10;;;;;;;23.10;20.67;;;;;;;;;;12641693;28;20035;-82
2022/03/25 00:17:12;;;;;;;18.58;16.67;;;;;;;;;;12641516;28;20044;-83
2022/03/25 00:23:14;;;;;;;23.80;20.60;;;;;;;;;;12641683;28;20028;-82
2022/03/25 00:29:15;;;;;;;26.23;23.25;;;;;;;;;;12642667;28;20060;-83
2022/03/25 00:35:17;;;;;;;26.00;21.70;;;;;;;;;;12656652;28;20036;-83
2022/03/25 00:41:22;;;;;;;23.75;21.23;;;;;;;;;;12646048;28;20509;-82
2022/03/25 00:47:24;;;;;;;23.92;20.02;;;;;;;;;;12633760;28;20039;-82
2022/03/25 00:53:26;;;;;;;23.20;19.85;;;;;;;;;;12633029;28;20481;-82
2022/03/25 00:59:29;;;;;;;22.58;19.95;;;;;;;;;;12632977;28;20051;-81
2022/03/25 01:05:32;;;;;;;22.13;19.85;;;;;;;;;;12650598;28;20066;-83
2022/03/25 01:11:35;;;;;;;24.63;21.88;;;;;;;;;;12656608;28;20396;-82
2022/03/25 01:17:37;;;;;;;23.55;20.92;;;;;;;;;;12631567;28;20044;-82
2022/03/25 01:23:39;;;;;;;24.57;21.17;;;;;;;;;;12648011;28;20043;-82
2022/03/25 01:29:41;;;;;;;21.83;19.48;;;;;;;;;;12649658;28;20051;-82
2022/03/25 01:35:45;;;;;;;23.05;20.67;;;;;;;;;;12664193;28;20043;-82
2022/03/25 01:41:47;;;;;;;23.80;20.20;;;;;;;;;;12645527;28;20032;-82
2022/03/25 01:47:49;;;;;;;23.47;21.03;;;;;;;;;;12629670;28;20028;-82
2022/03/25 01:53:51;;;;;;;22.20;19.05;;;;;;;;;;12648204;28;20028;-82
2022/03/25 01:59:56;;;;;;;21.52;19.25;;;;;;;;;;12662496;28;20044;-82
2022/03/25 02:05:57;;;;;;;22.58;20.30;;;;;;;;;;12645945;28;20448;-81
2022/03/25 02:12:00;;;;;;;30.92;24.50;;;;;;;;;;12645611;28;20028;-81
2022/03/25 02:18:03;;;;;;;28.25;25.23;;;;;;;;;;12646344;28;20424;-81
2022/03/25 02:24:06;;;;;;;25.05;22.40;;;;;;;;;;12628041;28;20377;-81
2022/03/25 02:30:08;;;;;;;27.38;24.55;;;;;;;;;;12646279;28;20035;-81
2022/03/25 02:36:10;;;;;;;23.30;20.67;;;;;;;;;;12645695;28;20036;-81
2022/03/25 02:42:12;;;;;;;24.42;21.90;;;;;;;;;;12644500;28;20492;-81
2022/03/25 02:48:14;;;;;;;24.55;22.05;;;;;;;;;;12626121;28;20043;-81
2022/03/25 02:54:16;;;;;;;20.05;18.05;;;;;;;;;;12624681;28;20036;-81
2022/03/25 03:00:19;;;;;;;25.02;22.33;;;;;;;;;;12626871;28;20048;-81
2022/03/25 03:06:21;;;;;;;23.95;21.55;;;;;;;;;;12652047;28;20381;-81
2022/03/25 03:12:24;;;;;;;19.73;17.77;;;;;;;;;;12640928;28;20479;-81
2022/03/25 03:18:25;;;;;;;25.55;22.85;;;;;;;;;;12641666;28;20040;-81
2022/03/25 03:24:27;;;;;;;23.48;20.98;;;;;;;;;;12642815;28;20163;-80
2022/03/25 03:30:29;;;;;;;25.40;22.83;;;;;;;;;;12642932;28;20485;-82
2022/03/25 03:36:30;;;;;;;26.15;23.40;;;;;;;;;;12642510;28;20036;-82
2022/03/25 03:42:32;;;;;;;24.70;22.25;;;;;;;;;;12643530;28;20489;-82
2022/03/25 03:48:34;;;;;;;23.55;21.13;;;;;;;;;;12641910;28;20024;-82
2022/03/25 03:54:37;;;;;;;21.48;19.27;;;;;;;;;;12625435;28;20040;-82
2022/03/25 04:00:39;;;;;;;21.90;19.70;;;;;;;;;;12641899;28;20389;-82
2022/03/25 04:06:41;;;;;;;22.73;20.38;;;;;;;;;;12642240;28;20040;-82
2022/03/25 04:12:42;;;;;;;23.17;20.70;;;;;;;;;;12641587;28;20028;-82
2022/03/25 04:18:44;;;;;;;23.67;21.23;;;;;;;;;;12642930;28;20040;-81
2022/03/25 04:24:46;;;;;;;20.38;18.38;;;;;;;;;;12650952;28;20098;-82
2022/03/25 04:30:47;;;;;;;21.83;19.63;;;;;;;;;;12652100;28;20036;-82
2022/03/25 04:36:49;;;;;;;19.35;17.35;;;;;;;;;;12650351;28;20032;-82
2022/03/25 04:42:52;;;;;;;18.87;16.90;;;;;;;;;;12649978;28;20374;-82
2022/03/25 04:48:54;;;;;;;22.87;20.57;;;;;;;;;;12651165;28;20027;-82
2022/03/25 04:54:55;;;;;;;26.75;24.02;;;;;;;;;;12650917;28;20294;-83
2022/03/25 05:00:57;;;;;;;26.02;23.23;;;;;;;;;;12649281;28;20417;-82
2022/03/25 05:07:03;;;;;;;24.40;21.00;;;;;;;;;;12650172;28;20040;-83
2022/03/25 05:13:05;;;;;;;23.63;21.13;;;;;;;;;;12666558;28;20032;-82
2022/03/25 05:19:07;;;;;;;22.40;20.08;;;;;;;;;;12646037;28;20043;-82
2022/03/25 05:25:09;;;;;;;20.30;18.20;;;;;;;;;;12628922;28;20425;-81
2022/03/25 05:31:11;;;;;;;19.20;17.17;;;;;;;;;;12649193;28;20476;-82
2022/03/25 05:37:13;;;;;;;19.20;17.13;;;;;;;;;;12647732;28;20078;-83
2022/03/25 05:43:15;;;;;;;18.80;16.90;;;;;;;;;;12656130;28;20047;-81
2022/03/25 05:49:17;;;;;;;15.50;13.90;;;;;;;;;;12637701;28;20409;-82
2022/03/25 05:55:19;;;;;;;16.95;15.23;;;;;;;;;;12647101;28;20035;-81
2022/03/25 06:01:21;;;;;;;18.45;16.48;;;;;;;;;;12646529;28;20393;-81
2022/03/25 06:07:24;;;;;;;18.42;16.58;;;;;;;;;;12647332;28;20039;-81
2022/03/25 06:13:27;;;;;;;20.85;18.48;;;;;;;;;;12647910;28;20039;-82
2022/03/25 06:19:29;;;;;;;17.77;15.87;;;;;;;;;;12664259;28;20047;-82
2022/03/25 06:25:30;;;;;;;19.70;16.13;;;;;;;;;;12645208;28;20044;-83
2022/03/25 06:31:33;;;;;;;20.15;17.88;;;;;;;;;;12639929;28;20028;-83
2022/03/25 06:37:35;;;;;;;19.43;17.10;;;;;;;;;;12639820;28;20039;-81
2022/03/25 06:43:37;;;;;;;16.53;14.80;;;;;;;;;;12653557;28;20392;-79
2022/03/25 06:49:39;;;;;;;22.23;19.67;;;;;;;;;;12640247;28;20024;-79
2022/03/25 06:55:43;;;;;;;21.10;18.88;;;;;;;;;;12626319;28;20044;-79
2022/03/25 07:01:45;;;;;;;24.42;21.80;;;;;;;;;;12617335;28;20032;-82
2022/03/25 07:07:46;;;;;;;25.15;22.00;;;;;;;;;;12640208;28;20047;-80
2022/03/25 07:13:48;;;;;;;30.17;24.80;;;;;;;;;;12621168;28;20032;-83
2022/03/25 07:19:50;;;;;;;30.00;25.63;;;;;;;;;;12631467;28;20028;-82
2022/03/25 07:25:52;;;;;;;36.22;27.45;;;;;;;;;;12633382;28;20044;-79
2022/03/25 07:31:54;;;;;;;31.50;27.75;;;;;;;;;;12638290;28;20086;-81
2022/03/25 07:37:56;;;;;;;29.85;24.63;;;;;;;;;;12628776;28;20055;-80
2022/03/25 07:50:41;;;;;;;33.65;27.13;;;;;;;;;;12966256;23;20074;-78
2022/03/25 07:56:44;;;;;;;29.42;24.60;;;;;;;;;;12251632;29;20034;-79
2022/03/25 08:02:54;;;;;;;29.35;23.60;;;;;;;;;;12242345;29;20044;-78
2022/03/25 08:08:59;;;;;;;25.83;21.98;;;;;;;;;;12239752;29;20032;-79
2022/03/25 08:15:00;;;;;;;29.40;22.30;;;;;;;;;;12249352;29;20036;-79
2022/03/25 08:21:03;;;;;;;26.27;20.88;;;;;;;;;;12267533;29;20134;-80
2022/03/25 08:33:35;;;;;;;24.30;19.30;;;;;;;;;;12247412;23;20067;-78
2022/03/25 08:40:09;;;;;;;31.48;23.80;;;;;;;;;;12288215;28;20042;-77
2022/03/25 08:46:49;;;;;;;27.10;20.30;;;;;;;;;;12286355;28;20384;-77
2022/03/25 08:52:53;;;;;;;24.45;19.60;;;;;;;;;;12274116;29;20028;-75
2022/03/25 08:58:58;;;;;;;25.27;18.48;;;;;;;;;;12289368;29;20412;-80
2022/03/25 09:05:01;;;;;;;24.63;18.38;;;;;;;;;;12286266;28;20039;-82
2022/03/25 09:11:04;;;;;;;24.67;19.70;;;;;;;;;;12297114;28;20050;-81
2022/03/25 09:17:06;;;;;;;20.15;16.40;;;;;;;;;;12264432;28;20047;-80
2022/03/25 09:23:08;;;;;;;20.60;16.27;;;;;;;;;;12277690;29;20496;-80
2022/03/25 09:29:10;;;;;;;23.90;19.13;;;;;;;;;;12275963;28;20032;-80
2022/03/25 09:35:13;;;;;;;22.52;15.52;;;;;;;;;;12253358;29;20056;-80
2022/03/25 09:41:15;;;;;;;15.45;12.13;;;;;;;;;;12296173;28;20039;-79
2022/03/25 09:47:18;;;;;;;29.03;16.63;;;;;;;;;;12268186;28;20028;-79
2022/03/25 09:53:19;;;;;;;20.70;14.65;;;;;;;;;;12278326;28;20404;-81
2022/03/25 09:59:21;;;;;;;21.30;15.07;;;;;;;;;;12272179;29;20051;-80
2022/03/25 10:05:23;;;;;;;23.07;16.73;;;;;;;;;;12275155;28;20024;-81
2022/03/25 10:11:25;;;;;;;17.50;14.23;;;;;;;;;;12286946;28;20034;-80
2022/03/25 10:17:27;;;;;;;21.27;16.20;;;;;;;;;;12271301;28;20452;-81
2022/03/25 10:23:31;;;;;;;29.30;20.65;;;;;;;;;;12278630;28;20050;-81
2022/03/25 10:29:32;;;;;;;25.15;17.40;;;;;;;;;;12283457;28;20023;-80
2022/03/25 10:35:52;;;;;;;24.77;18.37;;;;;;;;;;12281798;28;20066;-80
2022/03/25 10:41:58;;;;;;;19.80;15.45;;;;;;;;;;12248598;29;20048;-80
2022/03/25 10:48:19;;;;;;;25.20;19.23;;;;;;;;;;12273215;28;20417;-81
2022/03/25 10:54:25;;;;;;;19.35;15.73;;;;;;;;;;12303513;28;20031;-80
2022/03/25 11:00:27;;;;;;;21.35;16.13;;;;;;;;;;12257211;29;20038;-81
2022/03/25 11:06:30;;;;;;;23.40;17.92;;;;;;;;;;12279106;28;20047;-80
2022/03/25 11:12:32;;;;;;;17.77;14.32;;;;;;;;;;12282736;29;20039;-79
2022/03/25 11:18:34;;;;;;;22.52;16.15;;;;;;;;;;12272476;28;20043;-80
2022/03/25 11:24:38;;;;;;;23.20;17.20;;;;;;;;;;12274434;28;20043;-81
2022/03/25 11:30:40;;;;;;;21.38;17.00;;;;;;;;;;12263755;29;20482;-80
2022/03/25 11:36:43;;;;;;;17.97;13.60;;;;;;;;;;12274229;29;20055;-81
2022/03/25 11:42:47;;;;;;;15.32;12.40;;;;;;;;;;12265552;29;20039;-80
2022/03/25 11:48:49;;;;;;;19.73;13.80;;;;;;;;;;12250159;29;20035;-80
2022/03/25 11:54:55;;;;;;;12.33;9.10;;;;;;;;;;12275240;29;20024;-80
2022/03/25 12:01:01;;;;;;;15.02;12.70;;;;;;;;;;12283227;29;20048;-81
2022/03/25 12:07:08;;;;;;;13.95;11.60;;;;;;;;;;12245521;29;20051;-81
2022/03/25 12:13:10;;;;;;;14.52;10.82;;;;;;;;;;12271242;28;20035;-79
2022/03/25 12:19:28;;;;;;;14.63;10.73;;;;;;;;;;12278433;29;20048;-79
2022/03/25 12:25:31;;;;;;;14.00;11.48;;;;;;;;;;12253075;29;20032;-79
2022/03/25 12:31:33;;;;;;;17.63;13.80;;;;;;;;;;12251874;29;20031;-80
2022/03/25 12:37:34;;;;;;;12.30;10.68;;;;;;;;;;12256558;29;20067;-80
2022/03/25 12:43:36;;;;;;;12.77;10.63;;;;;;;;;;12272937;29;20043;-80
2022/03/25 12:49:38;;;;;;;16.77;13.27;;;;;;;;;;12252566;29;20315;-80
2022/03/25 12:55:40;;;;;;;13.13;10.13;;;;;;;;;;12243044;29;20039;-79
2022/03/25 13:01:46;;;;;;;16.25;14.27;;;;;;;;;;12259232;29;20043;-81
2022/03/25 13:07:52;;;;;;;12.68;11.15;;;;;;;;;;12258313;29;20051;-77
2022/03/25 13:13:54;;;;;;;18.85;15.23;;;;;;;;;;12241951;29;20035;-77
2022/03/25 13:19:57;;;;;;;13.85;11.75;;;;;;;;;;12258427;29;20059;-76
2022/03/25 13:26:00;;;;;;;12.27;9.55;;;;;;;;;;12258453;29;20528;-76
2022/03/25 13:32:03;;;;;;;13.55;11.77;;;;;;;;;;12258032;29;20032;-76
2022/03/25 13:38:13;;;;;;;12.23;10.93;;;;;;;;;;12267850;29;20063;-76
2022/03/25 13:44:15;;;;;;;12.88;10.90;;;;;;;;;;12240604;29;20501;-76
2022/03/25 13:50:20;;;;;;;13.23;11.82;;;;;;;;;;12255685;29;20048;-77
2022/03/25 13:56:23;;;;;;;14.70;12.57;;;;;;;;;;12266825;29;20142;-76
2022/03/25 14:02:26;;;;;;;15.63;13.13;;;;;;;;;;12255989;29;20047;-77
2022/03/25 14:08:34;;;;;;;20.25;15.82;;;;;;;;;;12256417;29;20043;-77
2022/03/25 14:14:36;;;;;;;16.67;13.48;;;;;;;;;;12256048;29;20036;-76
2022/03/25 14:20:38;;;;;;;17.60;14.80;;;;;;;;;;12255413;29;20047;-76
2022/03/25 14:26:39;;;;;;;13.63;11.70;;;;;;;;;;12255707;29;20032;-76
2022/03/25 14:32:41;;;;;;;13.93;11.45;;;;;;;;;;12237933;29;20369;-76
2022/03/25 14:38:42;;;;;;;16.83;13.70;;;;;;;;;;12255256;29;20058;-76
2022/03/25 14:44:45;;;;;;;16.58;13.18;;;;;;;;;;12265445;29;20105;-76
2022/03/25 14:50:47;;;;;;;19.60;14.85;;;;;;;;;;12237411;29;20378;-76
2022/03/25 14:56:49;;;;;;;14.55;12.73;;;;;;;;;;12254167;29;20043;-76
2022/03/25 15:02:50;;;;;;;13.75;10.55;;;;;;;;;;12236662;29;20040;-76
2022/03/25 15:08:52;;;;;;;14.57;10.63;;;;;;;;;;12236883;29;20031;-76
2022/03/25 15:14:55;;;;;;;12.57;9.93;;;;;;;;;;12254201;29;20287;-77
2022/03/25 15:20:57;;;;;;;13.35;10.63;;;;;;;;;;12253573;29;20062;-76
2022/03/25 15:26:59;;;;;;;9.27;8.32;;;;;;;;;;12236187;29;20040;-76
2022/03/25 15:39:59;;;;;;;11.35;9.98;;;;;;;;;;12272577;29;20052;-76
2022/03/25 15:45:44;;;;;;;;;;;;;;;;;;12252312;29;20039;-76
2022/03/25 15:51:48;;;;;;;13.32;11.18;;;;;;;;;;12252962;29;19911;-76
2022/03/25 15:57:55;;;;;;;9.52;7.80;;;;;;;;;;12252225;29;20028;-76
2022/03/25 16:03:56;;;;;;;14.10;11.68;;;;;;;;;;12263234;29;20036;-76
2022/03/25 16:09:58;;;;;;;12.02;10.05;;;;;;;;;;12237970;29;20393;-77
2022/03/25 16:16:03;;;;;;;15.57;12.02;;;;;;;;;;12244450;29;20039;-76
2022/03/25 16:22:05;;;;;;;17.20;13.25;;;;;;;;;;12260897;29;20050;-76
2022/03/25 16:28:08;;;;;;;;;;;;;;;;;;12273392;29;20043;-76
2022/03/25 16:34:10;;;;;;;11.60;9.93;;;;;;;;;;12243404;29;19922;-76
2022/03/25 16:40:16;;;;;;;9.65;7.50;;;;;;;;;;12243216;29;20075;-76
2022/03/25 16:46:18;;;;;;;11.82;9.02;;;;;;;;;;12243323;29;20059;-76
2022/03/25 16:52:19;;;;;;;10.45;7.60;;;;;;;;;;12260064;29;20035;-76
2022/03/25 16:58:21;;;;;;;9.45;7.63;;;;;;;;;;12271389;29;20035;-76
2022/03/25 17:04:23;;;;;;;8.68;6.88;;;;;;;;;;12242872;29;20044;-76
2022/03/25 17:10:25;;;;;;;9.23;7.33;;;;;;;;;;12242411;29;20051;-75
2022/03/25 17:16:27;;;;;;;8.27;6.27;;;;;;;;;;12258832;29;20036;-75
2022/03/25 17:22:30;;;;;;;7.60;6.70;;;;;;;;;;12240507;29;20062;-76
2022/03/25 17:28:32;;;;;;;5.60;4.82;;;;;;;;;;12240744;29;20032;-76
2022/03/25 17:34:34;;;;;;;7.25;5.85;;;;;;;;;;12257988;29;20059;-77
2022/03/25 17:40:36;;;;;;;7.73;6.00;;;;;;;;;;12240705;29;20066;-76
2022/03/25 17:46:38;;;;;;;5.53;4.77;;;;;;;;;;12240383;29;20047;-76
2022/03/25 17:52:40;;;;;;;6.25;4.80;;;;;;;;;;12257282;29;20044;-75
2022/03/25 17:58:42;;;;;;;5.93;4.50;;;;;;;;;;12256823;29;20047;-76
2022/03/25 18:04:44;;;;;;;3.60;3.07;;;;;;;;;;12240298;29;20044;-75
2022/03/25 18:10:45;;;;;;;5.00;3.57;;;;;;;;;;12239406;29;20032;-75
2022/03/25 18:16:47;;;;;;;5.60;4.50;;;;;;;;;;12256280;29;20039;-76
2022/03/25 18:22:49;;;;;;;6.27;4.40;;;;;;;;;;12264862;29;20048;-75
2022/03/25 18:28:56;;;;;;;4.83;4.03;;;;;;;;;;12255686;29;20494;-76
2022/03/25 18:34:58;;;;;;;5.93;3.85;;;;;;;;;;12237652;29;20060;-75
2022/03/25 18:41:00;;;;;;;5.13;4.43;;;;;;;;;;12238274;29;20074;-75
2022/03/25 18:47:02;;;;;;;5.05;4.65;;;;;;;;;;12254526;29;20516;-76
2022/03/25 18:53:03;;;;;;;4.53;4.05;;;;;;;;;;12260029;29;20031;-75
2022/03/25 18:59:05;;;;;;;4.40;3.83;;;;;;;;;;12245996;29;20055;-76
2022/03/25 19:05:07;;;;;;;5.30;4.80;;;;;;;;;;12254379;29;20390;-76
2022/03/25 19:11:09;;;;;;;6.20;4.83;;;;;;;;;;12236682;29;20039;-76
2022/03/25 19:17:11;;;;;;;5.50;4.73;;;;;;;;;;12253621;29;20039;-76
2022/03/25 19:23:13;;;;;;;5.18;4.53;;;;;;;;;;12236441;29;20047;-76
2022/03/25 19:29:15;;;;;;;5.00;3.67;;;;;;;;;;12253532;29;20036;-76
2022/03/25 19:35:18;;;;;;;5.47;4.23;;;;;;;;;;12265285;29;20445;-76
2022/03/25 19:41:26;;;;;;;5.75;5.13;;;;;;;;;;12236577;29;20070;-75
2022/03/25 19:47:30;;;;;;;7.30;4.88;;;;;;;;;;12259694;29;20055;-75
2022/03/25 19:53:32;;;;;;;8.93;4.82;;;;;;;;;;12243662;29;20039;-77
2022/03/25 19:59:33;;;;;;;7.63;5.07;;;;;;;;;;12260152;29;20409;-76
2022/03/25 20:05:35;;;;;;;7.25;4.93;;;;;;;;;;12243807;29;20378;-76
2022/03/25 20:11:37;;;;;;;7.55;5.70;;;;;;;;;;12243023;29;20060;-75
2022/03/25 20:17:39;;;;;;;6.40;5.78;;;;;;;;;;12260365;29;20036;-76
2022/03/25 20:23:41;;;;;;;7.45;6.13;;;;;;;;;;12261257;29;20047;-76
2022/03/25 20:29:43;;;;;;;7.85;6.88;;;;;;;;;;12260929;29;20043;-77
2022/03/25 20:35:45;;;;;;;9.45;7.25;;;;;;;;;;12261125;29;20481;-77
2022/03/25 20:41:52;;;;;;;8.95;7.20;;;;;;;;;;12260653;29;20059;-75
2022/03/25 20:47:54;;;;;;;8.52;7.25;;;;;;;;;;12260112;29;20031;-76
2022/03/25 20:53:57;;;;;;;7.32;6.05;;;;;;;;;;12260011;29;20035;-77
2022/03/25 20:59:58;;;;;;;7.72;5.78;;;;;;;;;;12258521;29;20048;-76
2022/03/25 21:06:00;;;;;;;6.60;5.90;;;;;;;;;;12271785;29;20039;-76
2022/03/25 21:12:02;;;;;;;8.52;6.63;;;;;;;;;;12242568;29;20046;-76
2022/03/25 21:18:05;;;;;;;7.83;6.47;;;;;;;;;;12241931;29;20043;-77
2022/03/25 21:24:07;;;;;;;6.57;4.70;;;;;;;;;;12241791;29;20040;-77
2022/03/25 21:30:09;;;;;;;8.83;7.13;;;;;;;;;;12262171;29;20036;-76
2022/03/25 21:36:11;;;;;;;9.73;8.70;;;;;;;;;;12258332;29;20417;-76
2022/03/25 21:42:12;;;;;;;12.88;10.23;;;;;;;;;;12240868;29;20064;-76
2022/03/25 21:48:15;;;;;;;14.27;11.98;;;;;;;;;;12241804;29;20054;-76
2022/03/25 21:54:17;;;;;;;13.07;11.15;;;;;;;;;;12257201;29;20059;-76
2022/03/25 22:00:18;;;;;;;15.48;13.40;;;;;;;;;;12258292;29;20048;-76
2022/03/25 22:06:20;;;;;;;16.13;12.63;;;;;;;;;;12240010;29;20393;-76
2022/03/25 22:12:22;;;;;;;14.30;12.88;;;;;;;;;;12239488;29;20046;-76
2022/03/25 22:18:23;;;;;;;14.15;11.52;;;;;;;;;;12265530;29;20257;-76
2022/03/25 22:24:25;;;;;;;13.63;10.68;;;;;;;;;;12235821;29;20296;-76
2022/03/25 22:30:27;;;;;;;12.02;10.50;;;;;;;;;;12237061;29;20043;-76
2022/03/25 22:36:28;;;;;;;11.65;10.48;;;;;;;;;;12236629;29;20047;-76
2022/03/25 22:42:31;;;;;;;11.20;9.65;;;;;;;;;;12253067;29;20043;-76
2022/03/25 22:48:33;;;;;;;11.60;10.40;;;;;;;;;;12252693;29;20501;-75
2022/03/25 22:54:35;;;;;;;12.18;10.88;;;;;;;;;;12252420;29;20125;-75
2022/03/25 23:00:43;;;;;;;11.15;9.95;;;;;;;;;;12251986;29;20152;-75
2022/03/25 23:06:44;;;;;;;10.95;8.80;;;;;;;;;;12235456;29;20116;-76
2022/03/25 23:12:46;;;;;;;11.48;9.43;;;;;;;;;;12235714;29;20036;-75
2022/03/25 23:18:49;;;;;;;11.95;10.75;;;;;;;;;;12234534;29;20583;-75
2022/03/25 23:24:52;;;;;;;16.53;14.90;;;;;;;;;;12251125;29;20043;-75
2022/03/25 23:30:54;;;;;;;16.10;14.43;;;;;;;;;;12234115;29;20389;-75
2022/03/25 23:36:56;;;;;;;14.38;12.98;;;;;;;;;;12234111;29;20064;-76
2022/03/25 23:42:57;;;;;;;17.42;14.57;;;;;;;;;;12250652;29;20051;-75
2022/03/25 23:48:59;;;;;;;16.15;14.15;;;;;;;;;;12233949;29;20031;-75
2022/03/25 23:55:01;;;;;;;11.02;9.93;;;;;;;;;;12250466;29;20602;-76
